sensor_id;sensor_type;location;lat;lon;timestamp;P1;durP1;ratioP1;P2;durP2;ratioP2
4407;SDS011;2217;48.460;7.934;2022-08-19T00:00:11;2.20;;;0.80;;
4407;SDS011;2217;48.460;7.934;2022-08-19T00:02:40;2.20;;;0.80;;
4407;SDS011;2217;48.460;7.934;2022-08-19T00:05:08;2.20;;;0.80;;
4407;SDS011;2217;48.460;7.934;2022-08-19T00:07:35;2.20;;;0.90;;
4407;SDS011;2217;48.460;7.934;2022-08-19T00:10:03;2.20;;;0.80;;
4407;SDS011;2217;48.460;7.934;2022-08-19T00:12:31;2.20;;;0.80;;
4407;SDS011;2217;48.460;7.934;2022-08-19T00:14:58;2.20;;;0.80;;
4407;SDS011;2217;48.460;7.934;2022-08-19T00:17:26;2.20;;;0.80;;
4407;SDS011;2217;48.460;7.934;2022-08-19T00:19:54;2.20;;;0.90;;
4407;SDS011;2217;48.460;7.934;2022-08-19T00:22:21;2.20;;;0.80;;
4407;SDS011;2217;48.460;7.934;2022-08-19T00:24:48;2.20;;;0.80;;
4407;SDS011;2217;48.460;7.934;2022-08-19T00:27:15;2.20;;;0.80;;
4407;SDS011;2217;48.460;7.934;2022-08-19T00:29:42;2.20;;;0.80;;
4407;SDS011;2217;48.460;7.934;2022-08-19T00:32:09;2.20;;;0.80;;
4407;SDS011;2217;48.460;7.934;2022-08-19T00:34:38;2.20;;;0.80;;
4407;SDS011;2217;48.460;7.934;2022-08-19T00:37:05;2.20;;;0.80;;
4407;SDS011;2217;48.460;7.934;2022-08-19T00:39:32;2.20;;;0.70;;
4407;SDS011;2217;48.460;7.934;2022-08-19T00:42:00;2.20;;;0.80;;
4407;SDS011;2217;48.460;7.934;2022-08-19T00:44:28;2.20;;;0.80;;
4407;SDS011;2217;48.460;7.934;2022-08-19T00:46:57;2.20;;;0.80;;
4407;SDS011;2217;48.460;7.934;2022-08-19T00:49:27;2.20;;;0.70;;
4407;SDS011;2217;48.460;7.934;2022-08-19T00:52:07;2.20;;;0.80;;
4407;SDS011;2217;48.460;7.934;2022-08-19T00:54:35;2.20;;;0.80;;
4407;SDS011;2217;48.460;7.934;2022-08-19T00:57:04;2.20;;;0.80;;
4407;SDS011;2217;48.460;7.934;2022-08-19T00:59:33;2.20;;;0.77;;
4407;SDS011;2217;48.460;7.934;2022-08-19T01:02:01;2.20;;;0.80;;
4407;SDS011;2217;48.460;7.934;2022-08-19T01:04:29;2.20;;;0.70;;
4407;SDS011;2217;48.460;7.934;2022-08-19T01:06:57;2.20;;;0.80;;
4407;SDS011;2217;48.460;7.934;2022-08-19T01:09:25;2.20;;;0.80;;
4407;SDS011;2217;48.460;7.934;2022-08-19T01:11:52;2.20;;;0.80;;
4407;SDS011;2217;48.460;7.934;2022-08-19T01:14:19;2.20;;;0.80;;
4407;SDS011;2217;48.460;7.934;2022-08-19T01:16:46;2.20;;;0.80;;
4407;SDS011;2217;48.460;7.934;2022-08-19T01:19:15;2.20;;;0.80;;
4407;SDS011;2217;48.460;7.934;2022-08-19T01:21:45;2.20;;;0.80;;
4407;SDS011;2217;48.460;7.934;2022-08-19T01:24:15;2.20;;;0.80;;
4407;SDS011;2217;48.460;7.934;2022-08-19T01:26:45;2.20;;;0.80;;
4407;SDS011;2217;48.460;7.934;2022-08-19T01:29:12;2.20;;;0.80;;
4407;SDS011;2217;48.460;7.934;2022-08-19T01:31:39;2.20;;;0.80;;
4407;SDS011;2217;48.460;7.934;2022-08-19T01:34:07;2.20;;;0.90;;
4407;SDS011;2217;48.460;7.934;2022-08-19T01:36:35;2.20;;;0.80;;
4407;SDS011;2217;48.460;7.934;2022-08-19T01:39:05;2.20;;;0.80;;
4407;SDS011;2217;48.460;7.934;2022-08-19T01:41:35;2.20;;;0.80;;
4407;SDS011;2217;48.460;7.934;2022-08-19T01:44:03;2.20;;;0.80;;
4407;SDS011;2217;48.460;7.934;2022-08-19T01:46:30;2.20;;;0.80;;
4407;SDS011;2217;48.460;7.934;2022-08-19T01:48:57;2.20;;;0.80;;
4407;SDS011;2217;48.460;7.934;2022-08-19T01:51:25;2.20;;;0.80;;
4407;SDS011;2217;48.460;7.934;2022-08-19T01:53:52;2.20;;;0.80;;
4407;SDS011;2217;48.460;7.934;2022-08-19T01:56:19;2.20;;;0.80;;
4407;SDS011;2217;48.460;7.934;2022-08-19T01:58:49;2.20;;;0.80;;
4407;SDS011;2217;48.460;7.934;2022-08-19T02:01:17;2.20;;;0.80;;
4407;SDS011;2217;48.460;7.934;2022-08-19T02:03:44;2.20;;;0.80;;
4407;SDS011;2217;48.460;7.934;2022-08-19T02:06:12;2.20;;;0.80;;
4407;SDS011;2217;48.460;7.934;2022-08-19T02:08:39;2.20;;;0.80;;
4407;SDS011;2217;48.460;7.934;2022-08-19T02:11:06;2.20;;;0.80;;
4407;SDS011;2217;48.460;7.934;2022-08-19T02:13:34;2.20;;;0.80;;
4407;SDS011;2217;48.460;7.934;2022-08-19T02:16:03;2.20;;;0.80;;
4407;SDS011;2217;48.460;7.934;2022-08-19T02:18:30;2.20;;;0.80;;
4407;SDS011;2217;48.460;7.934;2022-08-19T02:20:58;2.20;;;0.80;;
4407;SDS011;2217;48.460;7.934;2022-08-19T02:23:25;2.20;;;0.80;;
4407;SDS011;2217;48.460;7.934;2022-08-19T02:25:52;2.20;;;0.80;;
4407;SDS011;2217;48.460;7.934;2022-08-19T02:28:20;2.20;;;0.80;;
4407;SDS011;2217;48.460;7.934;2022-08-19T02:30:47;2.20;;;0.80;;
4407;SDS011;2217;48.460;7.934;2022-08-19T02:33:16;2.20;;;0.80;;
4407;SDS011;2217;48.460;7.934;2022-08-19T02:51:40;2.20;;;0.80;;
4407;SDS011;2217;48.460;7.934;2022-08-19T02:54:08;2.20;;;0.80;;
4407;SDS011;2217;48.460;7.934;2022-08-19T02:56:37;2.20;;;0.80;;
4407;SDS011;2217;48.460;7.934;2022-08-19T02:59:05;2.20;;;0.80;;
4407;SDS011;2217;48.460;7.934;2022-08-19T03:01:33;2.20;;;0.90;;
4407;SDS011;2217;48.460;7.934;2022-08-19T03:04:01;2.20;;;0.80;;
4407;SDS011;2217;48.460;7.934;2022-08-19T03:06:29;2.20;;;0.80;;
4407;SDS011;2217;48.460;7.934;2022-08-19T03:08:58;2.20;;;0.90;;
4407;SDS011;2217;48.460;7.934;2022-08-19T03:11:28;2.20;;;0.80;;
4407;SDS011;2217;48.460;7.934;2022-08-19T03:13:55;2.20;;;0.80;;
4407;SDS011;2217;48.460;7.934;2022-08-19T03:16:23;2.20;;;0.80;;
4407;SDS011;2217;48.460;7.934;2022-08-19T03:18:51;2.20;;;0.80;;
4407;SDS011;2217;48.460;7.934;2022-08-19T03:21:19;2.20;;;0.80;;
4407;SDS011;2217;48.460;7.934;2022-08-19T03:23:47;2.20;;;0.80;;
4407;SDS011;2217;48.460;7.934;2022-08-19T03:26:16;2.20;;;0.90;;
4407;SDS011;2217;48.460;7.934;2022-08-19T03:28:43;2.20;;;0.80;;
4407;SDS011;2217;48.460;7.934;2022-08-19T03:31:15;2.20;;;0.80;;
4407;SDS011;2217;48.460;7.934;2022-08-19T03:33:43;2.20;;;0.70;;
4407;SDS011;2217;48.460;7.934;2022-08-19T03:36:12;2.20;;;0.80;;
4407;SDS011;2217;48.460;7.934;2022-08-19T03:38:41;2.20;;;0.80;;
4407;SDS011;2217;48.460;7.934;2022-08-19T03:41:10;2.20;;;0.80;;
4407;SDS011;2217;48.460;7.934;2022-08-19T03:43:39;2.20;;;0.80;;
4407;SDS011;2217;48.460;7.934;2022-08-19T03:46:07;2.20;;;0.73;;
4407;SDS011;2217;48.460;7.934;2022-08-19T03:48:35;2.20;;;0.80;;
4407;SDS011;2217;48.460;7.934;2022-08-19T03:51:02;2.20;;;0.80;;
4407;SDS011;2217;48.460;7.934;2022-08-19T03:53:30;2.20;;;0.80;;
4407;SDS011;2217;48.460;7.934;2022-08-19T03:55:57;2.20;;;0.80;;
4407;SDS011;2217;48.460;7.934;2022-08-19T03:58:25;2.20;;;0.80;;
4407;SDS011;2217;48.460;7.934;2022-08-19T04:00:55;2.10;;;0.80;;
4407;SDS011;2217;48.460;7.934;2022-08-19T04:03:22;2.20;;;0.80;;
4407;SDS011;2217;48.460;7.934;2022-08-19T04:05:49;2.20;;;0.90;;
4407;SDS011;2217;48.460;7.934;2022-08-19T04:08:17;2.20;;;0.90;;
4407;SDS011;2217;48.460;7.934;2022-08-19T04:10:45;2.20;;;0.80;;
4407;SDS011;2217;48.460;7.934;2022-08-19T04:13:12;2.20;;;0.80;;
4407;SDS011;2217;48.460;7.934;2022-08-19T04:15:40;2.20;;;0.80;;
4407;SDS011;2217;48.460;7.934;2022-08-19T04:18:09;2.20;;;0.80;;
4407;SDS011;2217;48.460;7.934;2022-08-19T04:20:40;2.20;;;0.90;;
4407;SDS011;2217;48.460;7.934;2022-08-19T04:23:07;2.20;;;0.80;;
4407;SDS011;2217;48.460;7.934;2022-08-19T04:25:36;2.20;;;0.90;;
4407;SDS011;2217;48.460;7.934;2022-08-19T04:28:03;2.20;;;0.90;;
4407;SDS011;2217;48.460;7.934;2022-08-19T04:30:30;2.20;;;0.80;;
4407;SDS011;2217;48.460;7.934;2022-08-19T04:32:58;2.20;;;0.80;;
4407;SDS011;2217;48.460;7.934;2022-08-19T04:35:26;2.20;;;0.80;;
4407;SDS011;2217;48.460;7.934;2022-08-19T04:37:54;2.13;;;0.80;;
4407;SDS011;2217;48.460;7.934;2022-08-19T04:40:21;2.20;;;0.80;;
4407;SDS011;2217;48.460;7.934;2022-08-19T04:43:05;2.20;;;0.80;;
4407;SDS011;2217;48.460;7.934;2022-08-19T04:45:33;2.20;;;0.80;;
4407;SDS011;2217;48.460;7.934;2022-08-19T04:48:02;2.20;;;0.80;;
4407;SDS011;2217;48.460;7.934;2022-08-19T04:50:32;2.20;;;0.80;;
4407;SDS011;2217;48.460;7.934;2022-08-19T04:52:59;2.20;;;0.87;;
4407;SDS011;2217;48.460;7.934;2022-08-19T04:55:26;2.10;;;0.80;;
4407;SDS011;2217;48.460;7.934;2022-08-19T04:57:54;2.20;;;0.80;;
4407;SDS011;2217;48.460;7.934;2022-08-19T05:00:21;2.20;;;0.83;;
4407;SDS011;2217;48.460;7.934;2022-08-19T05:02:48;2.20;;;0.90;;
4407;SDS011;2217;48.460;7.934;2022-08-19T05:05:15;2.20;;;0.80;;
4407;SDS011;2217;48.460;7.934;2022-08-19T05:07:44;2.17;;;0.80;;
4407;SDS011;2217;48.460;7.934;2022-08-19T05:10:12;2.20;;;0.80;;
4407;SDS011;2217;48.460;7.934;2022-08-19T05:12:39;2.20;;;0.80;;
4407;SDS011;2217;48.460;7.934;2022-08-19T05:15:07;2.13;;;0.80;;
4407;SDS011;2217;48.460;7.934;2022-08-19T05:17:34;2.20;;;0.80;;
4407;SDS011;2217;48.460;7.934;2022-08-19T05:20:02;2.20;;;0.80;;
4407;SDS011;2217;48.460;7.934;2022-08-19T05:22:48;2.20;;;0.80;;
4407;SDS011;2217;48.460;7.934;2022-08-19T05:25:16;2.20;;;0.80;;
4407;SDS011;2217;48.460;7.934;2022-08-19T05:27:44;2.13;;;0.80;;
4407;SDS011;2217;48.460;7.934;2022-08-19T05:30:11;2.20;;;0.80;;
4407;SDS011;2217;48.460;7.934;2022-08-19T05:32:39;2.20;;;0.80;;
4407;SDS011;2217;48.460;7.934;2022-08-19T05:35:07;2.20;;;0.80;;
4407;SDS011;2217;48.460;7.934;2022-08-19T05:37:34;2.20;;;0.80;;
4407;SDS011;2217;48.460;7.934;2022-08-19T05:40:03;2.20;;;0.80;;
4407;SDS011;2217;48.460;7.934;2022-08-19T05:42:30;2.20;;;0.80;;
4407;SDS011;2217;48.460;7.934;2022-08-19T05:44:58;2.20;;;0.80;;
4407;SDS011;2217;48.460;7.934;2022-08-19T05:47:26;2.20;;;0.80;;
4407;SDS011;2217;48.460;7.934;2022-08-19T05:49:53;2.20;;;0.80;;
4407;SDS011;2217;48.460;7.934;2022-08-19T05:52:20;2.20;;;0.80;;
4407;SDS011;2217;48.460;7.934;2022-08-19T05:54:47;2.20;;;0.80;;
4407;SDS011;2217;48.460;7.934;2022-08-19T05:57:17;2.13;;;0.80;;
4407;SDS011;2217;48.460;7.934;2022-08-19T05:59:45;2.20;;;0.80;;
4407;SDS011;2217;48.460;7.934;2022-08-19T06:02:13;2.20;;;0.80;;
4407;SDS011;2217;48.460;7.934;2022-08-19T06:04:40;2.20;;;0.80;;
4407;SDS011;2217;48.460;7.934;2022-08-19T06:07:08;2.20;;;0.70;;
4407;SDS011;2217;48.460;7.934;2022-08-19T06:09:35;2.20;;;0.80;;
4407;SDS011;2217;48.460;7.934;2022-08-19T06:12:03;2.20;;;0.80;;
4407;SDS011;2217;48.460;7.934;2022-08-19T06:14:32;2.20;;;0.70;;
4407;SDS011;2217;48.460;7.934;2022-08-19T06:17:00;2.20;;;0.80;;
4407;SDS011;2217;48.460;7.934;2022-08-19T06:19:28;2.20;;;0.80;;
4407;SDS011;2217;48.460;7.934;2022-08-19T06:21:56;2.20;;;0.80;;
4407;SDS011;2217;48.460;7.934;2022-08-19T06:24:24;2.20;;;0.70;;
4407;SDS011;2217;48.460;7.934;2022-08-19T06:26:52;2.20;;;0.80;;
4407;SDS011;2217;48.460;7.934;2022-08-19T06:29:21;2.20;;;0.70;;
4407;SDS011;2217;48.460;7.934;2022-08-19T06:31:51;2.20;;;0.80;;
4407;SDS011;2217;48.460;7.934;2022-08-19T06:34:18;2.20;;;0.80;;
4407;SDS011;2217;48.460;7.934;2022-08-19T06:36:46;2.20;;;0.80;;
4407;SDS011;2217;48.460;7.934;2022-08-19T06:39:14;2.17;;;0.80;;
4407;SDS011;2217;48.460;7.934;2022-08-19T06:41:43;2.20;;;0.80;;
4407;SDS011;2217;48.460;7.934;2022-08-19T06:44:12;2.20;;;0.80;;
4407;SDS011;2217;48.460;7.934;2022-08-19T06:46:40;2.20;;;0.80;;
4407;SDS011;2217;48.460;7.934;2022-08-19T06:49:11;2.20;;;0.80;;
4407;SDS011;2217;48.460;7.934;2022-08-19T06:51:39;2.20;;;0.80;;
4407;SDS011;2217;48.460;7.934;2022-08-19T06:54:07;2.20;;;0.80;;
4407;SDS011;2217;48.460;7.934;2022-08-19T06:56:34;2.20;;;0.80;;
4407;SDS011;2217;48.460;7.934;2022-08-19T06:59:02;2.20;;;0.80;;
4407;SDS011;2217;48.460;7.934;2022-08-19T07:01:30;2.20;;;0.70;;
4407;SDS011;2217;48.460;7.934;2022-08-19T07:03:57;2.20;;;0.80;;
4407;SDS011;2217;48.460;7.934;2022-08-19T07:06:26;2.20;;;0.80;;
4407;SDS011;2217;48.460;7.934;2022-08-19T07:08:56;2.20;;;0.80;;
4407;SDS011;2217;48.460;7.934;2022-08-19T07:11:24;2.20;;;0.80;;
4407;SDS011;2217;48.460;7.934;2022-08-19T07:13:51;2.20;;;0.80;;
4407;SDS011;2217;48.460;7.934;2022-08-19T07:16:19;2.20;;;0.80;;
4407;SDS011;2217;48.460;7.934;2022-08-19T07:18:47;2.20;;;0.80;;
4407;SDS011;2217;48.460;7.934;2022-08-19T07:21:15;2.20;;;0.83;;
4407;SDS011;2217;48.460;7.934;2022-08-19T07:23:44;2.20;;;0.77;;
4407;SDS011;2217;48.460;7.934;2022-08-19T07:26:13;2.20;;;0.73;;
4407;SDS011;2217;48.460;7.934;2022-08-19T07:28:41;2.20;;;0.80;;
4407;SDS011;2217;48.460;7.934;2022-08-19T07:31:12;2.20;;;0.80;;
4407;SDS011;2217;48.460;7.934;2022-08-19T07:33:40;2.20;;;0.80;;
4407;SDS011;2217;48.460;7.934;2022-08-19T07:36:11;2.20;;;0.77;;
4407;SDS011;2217;48.460;7.934;2022-08-19T07:38:39;2.20;;;0.80;;
4407;SDS011;2217;48.460;7.934;2022-08-19T07:41:09;2.20;;;0.70;;
4407;SDS011;2217;48.460;7.934;2022-08-19T07:43:38;2.20;;;0.80;;
4407;SDS011;2217;48.460;7.934;2022-08-19T07:46:05;2.20;;;0.80;;
4407;SDS011;2217;48.460;7.934;2022-08-19T07:48:32;2.20;;;0.80;;
4407;SDS011;2217;48.460;7.934;2022-08-19T07:51:08;2.20;;;0.80;;
4407;SDS011;2217;48.460;7.934;2022-08-19T07:53:36;2.20;;;0.80;;
4407;SDS011;2217;48.460;7.934;2022-08-19T07:56:05;2.20;;;0.80;;
4407;SDS011;2217;48.460;7.934;2022-08-19T07:58:36;2.20;;;0.80;;
4407;SDS011;2217;48.460;7.934;2022-08-19T08:01:07;2.30;;;0.80;;
4407;SDS011;2217;48.460;7.934;2022-08-19T08:03:37;2.23;;;0.80;;
4407;SDS011;2217;48.460;7.934;2022-08-19T08:06:22;2.20;;;0.80;;
4407;SDS011;2217;48.460;7.934;2022-08-19T08:09:07;2.27;;;0.80;;
4407;SDS011;2217;48.460;7.934;2022-08-19T08:11:41;2.30;;;0.80;;
4407;SDS011;2217;48.460;7.934;2022-08-19T08:14:15;2.20;;;0.70;;
4407;SDS011;2217;48.460;7.934;2022-08-19T08:16:42;2.30;;;0.80;;
4407;SDS011;2217;48.460;7.934;2022-08-19T08:19:10;2.30;;;0.80;;
4407;SDS011;2217;48.460;7.934;2022-08-19T08:21:39;2.30;;;0.70;;
4407;SDS011;2217;48.460;7.934;2022-08-19T08:24:07;2.30;;;0.80;;
4407;SDS011;2217;48.460;7.934;2022-08-19T08:26:34;2.30;;;0.80;;
4407;SDS011;2217;48.460;7.934;2022-08-19T08:29:04;2.30;;;0.77;;
4407;SDS011;2217;48.460;7.934;2022-08-19T08:31:47;2.30;;;0.80;;
4407;SDS011;2217;48.460;7.934;2022-08-19T08:34:14;2.30;;;0.80;;
4407;SDS011;2217;48.460;7.934;2022-08-19T08:36:44;2.30;;;0.80;;
4407;SDS011;2217;48.460;7.934;2022-08-19T08:39:15;2.30;;;0.80;;
4407;SDS011;2217;48.460;7.934;2022-08-19T08:41:44;2.30;;;0.70;;
4407;SDS011;2217;48.460;7.934;2022-08-19T08:44:14;2.30;;;0.80;;
4407;SDS011;2217;48.460;7.934;2022-08-19T08:46:43;2.30;;;0.80;;
4407;SDS011;2217;48.460;7.934;2022-08-19T08:49:16;2.30;;;0.80;;
4407;SDS011;2217;48.460;7.934;2022-08-19T08:51:47;2.40;;;0.70;;
4407;SDS011;2217;48.460;7.934;2022-08-19T08:54:20;2.33;;;0.73;;
4407;SDS011;2217;48.460;7.934;2022-08-19T08:56:51;2.40;;;0.80;;
4407;SDS011;2217;48.460;7.934;2022-08-19T08:59:20;2.33;;;0.80;;
4407;SDS011;2217;48.460;7.934;2022-08-19T09:01:48;2.33;;;0.77;;
4407;SDS011;2217;48.460;7.934;2022-08-19T09:04:17;2.33;;;0.80;;
4407;SDS011;2217;48.460;7.934;2022-08-19T09:06:47;2.40;;;0.70;;
4407;SDS011;2217;48.460;7.934;2022-08-19T09:09:18;2.37;;;0.80;;
4407;SDS011;2217;48.460;7.934;2022-08-19T09:11:50;2.40;;;0.80;;
4407;SDS011;2217;48.460;7.934;2022-08-19T09:14:31;2.37;;;0.70;;
4407;SDS011;2217;48.460;7.934;2022-08-19T09:16:59;2.40;;;0.70;;
4407;SDS011;2217;48.460;7.934;2022-08-19T09:19:30;2.40;;;0.70;;
4407;SDS011;2217;48.460;7.934;2022-08-19T09:21:57;2.40;;;0.80;;
4407;SDS011;2217;48.460;7.934;2022-08-19T09:24:25;2.40;;;0.80;;
4407;SDS011;2217;48.460;7.934;2022-08-19T09:26:52;2.40;;;0.80;;
4407;SDS011;2217;48.460;7.934;2022-08-19T09:29:20;2.40;;;0.70;;
4407;SDS011;2217;48.460;7.934;2022-08-19T09:31:47;2.40;;;0.80;;
4407;SDS011;2217;48.460;7.934;2022-08-19T09:34:15;2.40;;;0.80;;
4407;SDS011;2217;48.460;7.934;2022-08-19T09:36:46;2.40;;;0.80;;
4407;SDS011;2217;48.460;7.934;2022-08-19T09:39:14;2.40;;;0.77;;
4407;SDS011;2217;48.460;7.934;2022-08-19T09:41:41;2.40;;;0.80;;
4407;SDS011;2217;48.460;7.934;2022-08-19T09:44:08;2.40;;;0.80;;
4407;SDS011;2217;48.460;7.934;2022-08-19T09:46:37;2.40;;;0.77;;
4407;SDS011;2217;48.460;7.934;2022-08-19T09:49:05;2.40;;;0.80;;
4407;SDS011;2217;48.460;7.934;2022-08-19T09:51:32;2.40;;;0.80;;
4407;SDS011;2217;48.460;7.934;2022-08-19T09:54:02;2.40;;;0.70;;
4407;SDS011;2217;48.460;7.934;2022-08-19T09:56:29;2.40;;;0.80;;
4407;SDS011;2217;48.460;7.934;2022-08-19T09:58:57;2.40;;;0.73;;
4407;SDS011;2217;48.460;7.934;2022-08-19T10:01:25;2.40;;;0.70;;
4407;SDS011;2217;48.460;7.934;2022-08-19T10:03:54;2.50;;;0.80;;
4407;SDS011;2217;48.460;7.934;2022-08-19T10:06:23;2.50;;;0.80;;
4407;SDS011;2217;48.460;7.934;2022-08-19T10:08:51;2.50;;;0.80;;
4407;SDS011;2217;48.460;7.934;2022-08-19T10:11:21;2.53;;;0.80;;
4407;SDS011;2217;48.460;7.934;2022-08-19T10:13:49;2.50;;;0.80;;
4407;SDS011;2217;48.460;7.934;2022-08-19T10:16:17;2.60;;;0.80;;
4407;SDS011;2217;48.460;7.934;2022-08-19T10:18:46;2.70;;;0.80;;
4407;SDS011;2217;48.460;7.934;2022-08-19T10:21:15;2.70;;;0.80;;
4407;SDS011;2217;48.460;7.934;2022-08-19T10:23:44;2.70;;;0.80;;
4407;SDS011;2217;48.460;7.934;2022-08-19T10:26:11;2.77;;;0.80;;
4407;SDS011;2217;48.460;7.934;2022-08-19T10:28:40;2.80;;;0.80;;
4407;SDS011;2217;48.460;7.934;2022-08-19T10:31:12;2.73;;;0.80;;
4407;SDS011;2217;48.460;7.934;2022-08-19T10:33:40;2.80;;;0.80;;
4407;SDS011;2217;48.460;7.934;2022-08-19T10:36:10;2.90;;;0.80;;
4407;SDS011;2217;48.460;7.934;2022-08-19T10:38:40;2.80;;;0.80;;
4407;SDS011;2217;48.460;7.934;2022-08-19T10:41:08;2.80;;;0.80;;
4407;SDS011;2217;48.460;7.934;2022-08-19T10:43:35;2.90;;;0.80;;
4407;SDS011;2217;48.460;7.934;2022-08-19T10:46:06;2.87;;;0.90;;
4407;SDS011;2217;48.460;7.934;2022-08-19T10:48:34;2.80;;;0.80;;
4407;SDS011;2217;48.460;7.934;2022-08-19T10:51:02;2.80;;;0.80;;
4407;SDS011;2217;48.460;7.934;2022-08-19T10:53:46;2.80;;;0.80;;
4407;SDS011;2217;48.460;7.934;2022-08-19T10:56:14;2.90;;;0.73;;
4407;SDS011;2217;48.460;7.934;2022-08-19T10:59:01;2.87;;;0.80;;
4407;SDS011;2217;48.460;7.934;2022-08-19T11:01:30;2.80;;;0.80;;
4407;SDS011;2217;48.460;7.934;2022-08-19T11:03:59;2.90;;;0.80;;
4407;SDS011;2217;48.460;7.934;2022-08-19T11:06:26;2.87;;;0.80;;
4407;SDS011;2217;48.460;7.934;2022-08-19T11:08:55;2.87;;;0.80;;
4407;SDS011;2217;48.460;7.934;2022-08-19T11:11:23;2.80;;;0.80;;
4407;SDS011;2217;48.460;7.934;2022-08-19T11:13:50;2.83;;;0.80;;
4407;SDS011;2217;48.460;7.934;2022-08-19T11:16:18;2.90;;;0.80;;
4407;SDS011;2217;48.460;7.934;2022-08-19T11:18:52;2.87;;;0.80;;
4407;SDS011;2217;48.460;7.934;2022-08-19T11:21:21;2.87;;;0.80;;
4407;SDS011;2217;48.460;7.934;2022-08-19T11:23:49;2.87;;;0.80;;
4407;SDS011;2217;48.460;7.934;2022-08-19T11:26:17;2.87;;;0.80;;
4407;SDS011;2217;48.460;7.934;2022-08-19T11:28:45;2.83;;;0.80;;
4407;SDS011;2217;48.460;7.934;2022-08-19T11:31:12;2.90;;;0.80;;
4407;SDS011;2217;48.460;7.934;2022-08-19T11:33:40;2.87;;;0.80;;
4407;SDS011;2217;48.460;7.934;2022-08-19T11:36:11;2.90;;;0.80;;
4407;SDS011;2217;48.460;7.934;2022-08-19T11:38:38;2.87;;;0.80;;
4407;SDS011;2217;48.460;7.934;2022-08-19T11:41:06;2.80;;;0.80;;
4407;SDS011;2217;48.460;7.934;2022-08-19T11:43:34;2.87;;;0.80;;
4407;SDS011;2217;48.460;7.934;2022-08-19T11:46:03;2.90;;;0.80;;
4407;SDS011;2217;48.460;7.934;2022-08-19T11:48:31;2.87;;;0.80;;
4407;SDS011;2217;48.460;7.934;2022-08-19T11:50:58;2.90;;;0.80;;
4407;SDS011;2217;48.460;7.934;2022-08-19T11:53:27;2.90;;;0.80;;
4407;SDS011;2217;48.460;7.934;2022-08-19T11:55:56;2.90;;;0.80;;
4407;SDS011;2217;48.460;7.934;2022-08-19T11:58:23;2.97;;;0.80;;
4407;SDS011;2217;48.460;7.934;2022-08-19T12:00:52;2.93;;;0.80;;
4407;SDS011;2217;48.460;7.934;2022-08-19T12:03:19;2.97;;;0.80;;
4407;SDS011;2217;48.460;7.934;2022-08-19T12:05:46;3.00;;;0.80;;
4407;SDS011;2217;48.460;7.934;2022-08-19T12:08:14;3.03;;;0.80;;
4407;SDS011;2217;48.460;7.934;2022-08-19T12:10:45;3.00;;;0.80;;
4407;SDS011;2217;48.460;7.934;2022-08-19T12:13:14;3.10;;;0.90;;
4407;SDS011;2217;48.460;7.934;2022-08-19T12:15:45;3.10;;;0.80;;
4407;SDS011;2217;48.460;7.934;2022-08-19T12:18:12;3.10;;;0.80;;
4407;SDS011;2217;48.460;7.934;2022-08-19T12:20:40;3.13;;;0.80;;
4407;SDS011;2217;48.460;7.934;2022-08-19T12:23:08;3.20;;;0.80;;
4407;SDS011;2217;48.460;7.934;2022-08-19T12:25:36;3.20;;;0.80;;
4407;SDS011;2217;48.460;7.934;2022-08-19T12:28:05;3.20;;;0.80;;
4407;SDS011;2217;48.460;7.934;2022-08-19T12:30:32;3.23;;;0.80;;
4407;SDS011;2217;48.460;7.934;2022-08-19T12:32:59;3.33;;;0.80;;
4407;SDS011;2217;48.460;7.934;2022-08-19T12:35:26;3.40;;;0.80;;
4407;SDS011;2217;48.460;7.934;2022-08-19T12:37:55;3.40;;;0.80;;
4407;SDS011;2217;48.460;7.934;2022-08-19T12:40:22;3.40;;;0.70;;
4407;SDS011;2217;48.460;7.934;2022-08-19T12:42:50;3.40;;;0.70;;
4407;SDS011;2217;48.460;7.934;2022-08-19T12:45:18;3.53;;;0.80;;
4407;SDS011;2217;48.460;7.934;2022-08-19T12:47:45;3.63;;;0.70;;
4407;SDS011;2217;48.460;7.934;2022-08-19T12:50:13;3.80;;;0.80;;
4407;SDS011;2217;48.460;7.934;2022-08-19T12:52:40;3.88;;;0.80;;
4407;SDS011;2217;48.460;7.934;2022-08-19T12:55:08;4.00;;;0.80;;
4407;SDS011;2217;48.460;7.934;2022-08-19T12:57:36;3.97;;;0.77;;
4407;SDS011;2217;48.460;7.934;2022-08-19T13:00:22;4.13;;;0.70;;
4407;SDS011;2217;48.460;7.934;2022-08-19T13:02:50;4.28;;;0.75;;
4407;SDS011;2217;48.460;7.934;2022-08-19T13:05:18;4.35;;;0.70;;
4407;SDS011;2217;48.460;7.934;2022-08-19T13:07:49;4.40;;;0.70;;
4407;SDS011;2217;48.460;7.934;2022-08-19T13:10:17;4.50;;;0.80;;
4407;SDS011;2217;48.460;7.934;2022-08-19T13:12:46;4.53;;;0.70;;
4407;SDS011;2217;48.460;7.934;2022-08-19T13:15:14;4.57;;;0.70;;
4407;SDS011;2217;48.460;7.934;2022-08-19T13:17:44;4.70;;;0.80;;
4407;SDS011;2217;48.460;7.934;2022-08-19T13:20:12;4.70;;;0.70;;
4407;SDS011;2217;48.460;7.934;2022-08-19T13:22:39;4.78;;;0.70;;
4407;SDS011;2217;48.460;7.934;2022-08-19T13:25:07;4.80;;;0.80;;
4407;SDS011;2217;48.460;7.934;2022-08-19T13:27:35;4.82;;;0.80;;
4407;SDS011;2217;48.460;7.934;2022-08-19T13:30:03;4.85;;;0.80;;
4407;SDS011;2217;48.460;7.934;2022-08-19T13:32:50;4.82;;;0.80;;
4407;SDS011;2217;48.460;7.934;2022-08-19T13:35:34;4.75;;;0.80;;
4407;SDS011;2217;48.460;7.934;2022-08-19T13:38:01;4.60;;;0.80;;
4407;SDS011;2217;48.460;7.934;2022-08-19T13:40:30;4.68;;;0.80;;
4407;SDS011;2217;48.460;7.934;2022-08-19T13:42:59;4.60;;;0.80;;
4407;SDS011;2217;48.460;7.934;2022-08-19T13:45:27;4.50;;;0.80;;
4407;SDS011;2217;48.460;7.934;2022-08-19T13:47:57;4.50;;;0.80;;
4407;SDS011;2217;48.460;7.934;2022-08-19T13:50:25;4.47;;;0.80;;
4407;SDS011;2217;48.460;7.934;2022-08-19T13:52:53;4.40;;;0.80;;
4407;SDS011;2217;48.460;7.934;2022-08-19T13:55:21;4.40;;;0.80;;
4407;SDS011;2217;48.460;7.934;2022-08-19T13:57:49;4.33;;;0.80;;
4407;SDS011;2217;48.460;7.934;2022-08-19T14:00:20;4.37;;;0.80;;
4407;SDS011;2217;48.460;7.934;2022-08-19T14:02:50;4.20;;;0.90;;
4407;SDS011;2217;48.460;7.934;2022-08-19T14:05:19;4.20;;;0.90;;
4407;SDS011;2217;48.460;7.934;2022-08-19T14:07:46;4.13;;;0.80;;
4407;SDS011;2217;48.460;7.934;2022-08-19T14:10:14;4.10;;;0.87;;
4407;SDS011;2217;48.460;7.934;2022-08-19T14:12:44;4.07;;;0.90;;
4407;SDS011;2217;48.460;7.934;2022-08-19T14:15:12;4.00;;;0.80;;
4407;SDS011;2217;48.460;7.934;2022-08-19T14:17:40;3.93;;;0.90;;
4407;SDS011;2217;48.460;7.934;2022-08-19T14:20:08;3.97;;;0.80;;
4407;SDS011;2217;48.460;7.934;2022-08-19T14:22:38;3.90;;;0.80;;
4407;SDS011;2217;48.460;7.934;2022-08-19T14:25:07;3.90;;;0.90;;
4407;SDS011;2217;48.460;7.934;2022-08-19T14:27:35;3.90;;;0.87;;
4407;SDS011;2217;48.460;7.934;2022-08-19T14:30:04;3.90;;;0.80;;
4407;SDS011;2217;48.460;7.934;2022-08-19T14:32:33;3.90;;;0.90;;
4407;SDS011;2217;48.460;7.934;2022-08-19T14:35:00;3.87;;;0.80;;
4407;SDS011;2217;48.460;7.934;2022-08-19T14:37:27;3.80;;;0.80;;
4407;SDS011;2217;48.460;7.934;2022-08-19T14:39:56;3.80;;;0.90;;
4407;SDS011;2217;48.460;7.934;2022-08-19T14:42:23;3.80;;;0.80;;
4407;SDS011;2217;48.460;7.934;2022-08-19T14:44:50;3.80;;;0.90;;
4407;SDS011;2217;48.460;7.934;2022-08-19T14:47:17;3.80;;;0.80;;
4407;SDS011;2217;48.460;7.934;2022-08-19T14:49:44;3.80;;;0.80;;
4407;SDS011;2217;48.460;7.934;2022-08-19T14:52:12;3.80;;;0.90;;
4407;SDS011;2217;48.460;7.934;2022-08-19T14:54:39;3.80;;;0.80;;
4407;SDS011;2217;48.460;7.934;2022-08-19T14:57:13;3.80;;;0.90;;
4407;SDS011;2217;48.460;7.934;2022-08-19T14:59:40;3.70;;;0.80;;
4407;SDS011;2217;48.460;7.934;2022-08-19T15:02:07;3.70;;;0.80;;
4407;SDS011;2217;48.460;7.934;2022-08-19T15:04:35;3.70;;;0.80;;
4407;SDS011;2217;48.460;7.934;2022-08-19T15:07:04;3.70;;;0.90;;
4407;SDS011;2217;48.460;7.934;2022-08-19T15:09:33;3.70;;;0.80;;
4407;SDS011;2217;48.460;7.934;2022-08-19T15:12:00;3.70;;;0.90;;
4407;SDS011;2217;48.460;7.934;2022-08-19T15:14:31;3.70;;;0.90;;
4407;SDS011;2217;48.460;7.934;2022-08-19T15:16:59;3.70;;;0.87;;
4407;SDS011;2217;48.460;7.934;2022-08-19T15:19:29;3.70;;;0.80;;
4407;SDS011;2217;48.460;7.934;2022-08-19T15:21:57;3.70;;;0.80;;
4407;SDS011;2217;48.460;7.934;2022-08-19T15:24:25;3.70;;;0.80;;
4407;SDS011;2217;48.460;7.934;2022-08-19T15:26:52;3.70;;;0.80;;
4407;SDS011;2217;48.460;7.934;2022-08-19T15:29:22;3.70;;;0.80;;
4407;SDS011;2217;48.460;7.934;2022-08-19T15:31:51;3.70;;;0.90;;
4407;SDS011;2217;48.460;7.934;2022-08-19T15:34:20;3.80;;;0.90;;
4407;SDS011;2217;48.460;7.934;2022-08-19T15:36:47;3.70;;;0.83;;
4407;SDS011;2217;48.460;7.934;2022-08-19T15:39:14;3.70;;;0.83;;